Time;durP1;ratioP1;P1;durP2;ratioP2;P2;SDS_P1;SDS_P2;PMS_P1;PMS_P2;Temp;Humidity;BMP_temperature;BMP_pressure;BME280_temperature;BME280_humidity;BME280_pressure;Samples;Min_cycle;Max_cycle;Signal;HPM_P1;HPM_P2
2024/04/23 00:00:33;;;;;;;1.97;0.67;;;;;;;1.53;100.00;101668.94;5453603;26;20235;-66
2024/04/23 00:03:01;;;;;;;1.90;0.40;;;;;;;1.55;100.00;101676.72;5453451;26;20542;-67
2024/04/23 00:05:27;;;;;;;3.00;1.60;;;;;;;1.55;100.00;101661.56;5427257;26;20578;-67
2024/04/23 00:07:55;;;;;;;1.90;0.57;;;;;;;1.58;100.00;101666.44;5451970;26;20517;-66
2024/04/23 00:10:23;;;;;;;2.93;1.77;;;;;;;1.56;100.00;101657.84;5453452;26;20810;-66
2024/04/23 00:12:52;;;;;;;2.20;0.97;;;;;;;1.55;100.00;101664.22;5453286;26;20469;-66
2024/04/23 00:15:17;;;;;;;1.90;0.40;;;;;;;1.55;100.00;101664.22;5450682;26;21023;-66
2024/04/23 00:17:45;;;;;;;2.20;0.97;;;;;;;1.53;100.00;101660.94;5452298;26;20607;-66
2024/04/23 00:20:11;;;;;;;2.20;1.00;;;;;;;1.51;100.00;101655.00;5453421;26;20328;-66
2024/04/23 00:22:39;;;;;;;1.90;0.30;;;;;;;1.51;100.00;101655.00;5453033;26;20473;-66
2024/04/23 00:25:06;;;;;;;2.77;0.87;;;;;;;1.54;100.00;101645.75;5450871;26;20228;-66
2024/04/23 00:27:36;;;;;;;1.80;0.40;;;;;;;1.50;100.00;101651.50;5452754;26;20924;-66
2024/04/23 00:30:03;;;;;;;1.80;0.50;;;;;;;1.44;100.00;101638.19;5453209;26;20514;-66
2024/04/23 00:32:31;;;;;;;1.87;0.53;;;;;;;1.43;100.00;101639.25;5452815;26;20495;-66
2024/04/23 00:34:56;;;;;;;2.00;0.40;;;;;;;1.38;100.00;101631.06;5439217;26;20463;-66
2024/04/23 00:37:25;;;;;;;2.30;0.93;;;;;;;1.40;100.00;101637.00;5416936;26;20519;-66
2024/04/23 00:39:51;;;;;;;5.03;2.73;;;;;;;1.44;100.00;101636.34;5448167;26;20279;-66
2024/04/23 00:42:19;;;;;;;2.07;0.70;;;;;;;1.37;100.00;101630.22;5452694;26;20965;-66
2024/04/23 00:44:48;;;;;;;2.47;0.97;;;;;;;1.33;100.00;101625.53;5454242;26;20973;-66
2024/04/23 00:47:16;;;;;;;1.90;0.40;;;;;;;1.35;100.00;101628.81;5420864;26;20475;-66
2024/04/23 00:49:42;;;;;;;2.50;1.27;;;;;;;1.27;100.00;101633.34;5438370;26;20468;-66
2024/04/23 00:52:10;;;;;;;1.80;0.30;;;;;;;1.29;100.00;101629.69;5456270;26;20510;-66
2024/04/23 00:54:36;;;;;;;1.80;0.30;;;;;;;1.23;100.00;101631.31;5456207;26;20453;-66
2024/04/23 00:57:05;;;;;;;2.30;0.90;;;;;;;1.17;100.00;101625.00;5433867;26;20526;-66
2024/04/23 00:59:31;;;;;;;3.43;1.70;;;;;;;1.16;100.00;101628.69;5424286;26;20221;-66
2024/04/23 01:02:02;;;;;;;1.80;0.30;;;;;;;1.19;100.00;101628.25;5456156;26;20524;-66
2024/04/23 01:04:28;;;;;;;4.13;1.07;;;;;;;1.18;100.00;101631.16;5456309;26;20532;-66
2024/04/23 01:06:56;;;;;;;1.77;0.40;;;;;;;1.18;100.00;101621.28;5446477;26;20576;-66
2024/04/23 01:09:22;;;;;;;2.67;1.00;;;;;;;1.25;100.00;101621.28;5420108;26;20259;-66
2024/04/23 01:11:51;;;;;;;1.80;0.40;;;;;;;1.34;100.00;101620.00;5447059;26;20523;-66
2024/04/23 01:14:17;;;;;;;1.90;0.60;;;;;;;1.36;100.00;101623.25;5428104;26;20483;-66
2024/04/23 01:16:48;;;;;;;1.90;0.60;;;;;;;1.38;100.00;101613.19;5420262;26;20550;-66
2024/04/23 01:19:26;;;;;;;5.80;1.10;;;;;;;1.40;100.00;101610.31;5452386;26;20847;-66
2024/04/23 01:21:59;;;;;;;1.80;0.30;;;;;;;1.42;100.00;101621.59;5455668;26;20526;-66
2024/04/23 01:24:32;;;;;;;1.80;0.40;;;;;;;1.46;100.00;101615.63;5455584;26;20523;-66
2024/04/23 01:27:03;;;;;;;2.00;0.60;;;;;;;1.38;100.00;101604.38;5455862;26;20996;-66
2024/04/23 01:29:30;;;;;;;1.80;0.50;;;;;;;1.39;100.00;101611.34;5429738;26;20850;-66
2024/04/23 01:32:01;;;;;;;3.07;2.07;;;;;;;1.45;100.00;101611.28;5427083;26;20469;-66
2024/04/23 01:34:28;;;;;;;1.83;0.30;;;;;;;1.41;100.00;101609.25;5455777;26;20517;-66
2024/04/23 01:36:56;;;;;;;2.40;0.67;;;;;;;1.44;100.00;101615.00;5455659;26;20842;-66
2024/04/23 01:39:23;;;;;;;3.40;1.37;;;;;;;1.47;100.00;101616.44;5442438;26;20606;-66
2024/04/23 01:41:51;;;;;;;1.90;0.50;;;;;;;1.39;100.00;101617.50;5419715;26;20459;-66
2024/04/23 01:44:21;;;;;;;3.80;1.13;;;;;;;1.36;100.00;101607.22;5450353;26;20466;-65
2024/04/23 01:46:49;;;;;;;1.80;0.40;;;;;;;1.43;100.00;101613.38;5455182;26;20513;-65
2024/04/23 01:49:15;;;;;;;1.80;0.47;;;;;;;1.35;100.00;101600.25;5451999;26;20505;-65
2024/04/23 01:51:44;;;;;;;1.90;0.50;;;;;;;1.33;100.00;101614.84;5455398;26;20854;-66
2024/04/23 01:54:09;;;;;;;1.80;0.40;;;;;;;1.35;100.00;101612.78;5455000;26;20236;-65
2024/04/23 01:56:38;;;;;;;3.10;1.07;;;;;;;1.30;100.00;101613.44;5454441;26;20798;-65
2024/04/23 01:59:04;;;;;;;2.57;0.83;;;;;;;1.23;100.00;101612.66;5434009;26;20230;-65
2024/04/23 02:01:40;;;;;;;1.80;0.40;;;;;;;1.21;100.00;101609.38;5419180;26;20503;-65
2024/04/23 02:04:09;;;;;;;1.80;0.30;;;;;;;1.26;100.00;101609.56;5425733;26;20469;-65
2024/04/23 02:06:34;;;;;;;1.90;0.50;;;;;;;1.23;100.00;101609.97;5455321;26;20446;-65
2024/04/23 02:09:03;;;;;;;3.50;1.33;;;;;;;1.22;100.00;101611.84;5445450;26;20884;-65
2024/04/23 02:11:30;;;;;;;1.80;0.30;;;;;;;1.15;100.00;101613.72;5419120;26;20221;-65
2024/04/23 02:13:58;;;;;;;2.13;0.97;;;;;;;1.13;100.00;101610.44;5447372;26;20904;-66
2024/04/23 02:16:24;;;;;;;1.80;0.40;;;;;;;1.08;100.00;101612.94;5455199;26;20957;-65
2024/04/23 02:18:54;;;;;;;1.80;0.30;;;;;;;1.04;100.00;101605.56;5455096;26;20445;-66
2024/04/23 02:21:20;;;;;;;1.80;0.30;;;;;;;1.09;100.00;101603.91;5422751;26;20793;-66
2024/04/23 02:23:48;;;;;;;5.47;0.63;;;;;;;1.06;100.00;101600.81;5433446;26;20466;-69
2024/04/23 02:26:14;;;;;;;2.20;0.70;;;;;;;1.00;100.00;101603.31;5452636;26;20230;-66
2024/04/23 02:28:42;;;;;;;2.00;0.50;;;;;;;1.03;100.00;101603.94;5454815;26;20497;-67
2024/04/23 02:31:08;;;;;;;1.80;0.30;;;;;;;1.08;100.00;101598.78;5455138;26;20247;-67
2024/04/23 02:33:36;;;;;;;1.97;0.50;;;;;;;1.13;100.00;101596.28;5454419;26;20470;-67
2024/04/23 02:36:05;;;;;;;2.97;0.60;;;;;;;1.10;100.00;101592.19;5451911;26;20279;-67
2024/04/23 02:38:33;;;;;;;4.73;0.70;;;;;;;1.06;100.00;101590.97;5450263;26;20466;-67
2024/04/23 02:40:59;;;;;;;1.80;0.50;;;;;;;0.98;100.00;101596.56;5454953;26;20457;-67
2024/04/23 02:43:27;;;;;;;1.80;0.30;;;;;;;1.04;100.00;101590.38;5455001;26;20465;-67
2024/04/23 02:48:28;;;;;;;1.80;0.40;;;;;;;0.87;100.00;101598.03;5485777;26;20551;-69
2024/04/23 02:50:53;;;;;;;1.80;0.40;;;;;;;0.90;100.00;101591.47;5490804;26;20448;-66
2024/04/23 02:53:24;;;;;;;7.77;1.57;;;;;;;0.82;100.00;101594.38;5473164;26;20462;-66
2024/04/23 02:55:50;;;;;;;1.90;0.67;;;;;;;0.83;100.00;101586.16;5453840;26;20557;-66
2024/04/23 02:58:18;;;;;;;2.00;0.63;;;;;;;0.71;100.00;101586.03;5451554;26;20517;-66
2024/04/23 03:00:44;;;;;;;1.90;0.70;;;;;;;0.65;100.00;101588.69;5454236;26;20256;-66
2024/04/23 03:03:12;;;;;;;1.80;0.30;;;;;;;0.67;100.00;101582.13;5454229;26;20874;-66
2024/04/23 03:05:37;;;;;;;2.20;0.93;;;;;;;0.61;100.00;101577.63;5454176;26;20258;-66
2024/04/23 03:08:06;;;;;;;3.70;0.67;;;;;;;0.60;100.00;101569.84;5454011;26;20450;-66
2024/04/23 03:10:34;;;;;;;2.73;0.83;;;;;;;0.62;100.00;101573.09;5451258;26;20770;-66
2024/04/23 03:13:03;;;;;;;1.80;0.30;;;;;;;0.63;100.00;101570.25;5453479;26;20515;-66
2024/04/23 03:15:28;;;;;;;1.80;0.30;;;;;;;0.61;100.00;101568.81;5454045;26;20506;-66
2024/04/23 03:17:57;;;;;;;4.33;0.73;;;;;;;0.58;100.00;101569.25;5454037;26;20465;-66
2024/04/23 03:20:22;;;;;;;1.80;0.30;;;;;;;0.57;100.00;101576.41;5451685;26;20816;-66
2024/04/23 03:22:51;;;;;;;1.73;0.37;;;;;;;0.60;100.00;101575.19;5453802;26;20469;-66
2024/04/23 03:25:16;;;;;;;1.70;0.30;;;;;;;0.59;100.00;101585.03;5453903;26;20317;-66
2024/04/23 03:27:47;;;;;;;1.80;0.30;;;;;;;0.57;100.00;101575.59;5454169;26;20465;-66
2024/04/23 03:30:13;;;;;;;1.90;0.50;;;;;;;0.53;100.00;101579.69;5450911;26;20274;-66
2024/04/23 03:32:41;;;;;;;2.40;0.70;;;;;;;0.55;100.00;101578.47;5453775;26;20961;-66
2024/04/23 03:35:07;;;;;;;1.80;0.30;;;;;;;0.55;100.00;101578.47;5453803;26;20264;-66
2024/04/23 03:37:35;;;;;;;1.70;0.30;;;;;;;0.59;100.00;101578.88;5453786;26;20489;-66
2024/04/23 03:40:03;;;;;;;1.80;0.57;;;;;;;0.58;100.00;101577.25;5451198;26;20232;-65
2024/04/23 03:42:31;;;;;;;1.80;0.50;;;;;;;0.62;100.00;101565.97;5451115;26;21034;-65
2024/04/23 03:45:02;;;;;;;2.30;0.60;;;;;;;0.69;100.00;101573.91;5417814;26;20451;-66
2024/04/23 03:47:31;;;;;;;2.60;0.93;;;;;;;0.66;100.00;101572.47;5439621;26;20473;-66
2024/04/23 03:49:57;;;;;;;2.37;0.83;;;;;;;0.68;100.00;101570.44;5455998;26;20506;-66
2024/04/23 03:52:26;;;;;;;4.80;1.33;;;;;;;0.60;100.00;101562.66;5459365;26;20527;-65
2024/04/23 03:54:52;;;;;;;1.90;0.60;;;;;;;0.58;100.00;101566.59;5489839;26;20258;-65
2024/04/23 03:57:20;;;;;;;1.77;0.40;;;;;;;0.65;100.00;101568.19;5489741;26;20456;-65
2024/04/23 03:59:45;;;;;;;1.70;0.30;;;;;;;0.66;100.00;101564.47;5489730;26;20215;-65
2024/04/23 04:07:44;;;;;;;1.80;0.30;;;;;;;0.55;100.00;101561.66;5492366;26;21122;-64
2024/04/23 04:10:13;;;;;;;2.47;1.27;;;;;;;0.44;100.00;101560.44;5489550;26;20449;-64
2024/04/23 04:12:41;;;;;;;1.80;0.67;;;;;;;0.44;100.00;101561.31;5470369;26;20485;-64
2024/04/23 04:15:09;;;;;;;3.03;0.80;;;;;;;0.46;100.00;101561.06;5489640;26;20524;-64
2024/04/23 04:17:38;;;;;;;1.90;0.57;;;;;;;0.35;100.00;101570.53;5489419;26;20562;-65
2024/04/23 04:20:08;;;;;;;1.80;0.30;;;;;;;0.36;100.00;101571.38;5492627;26;20464;-65
2024/04/23 04:22:33;;;;;;;1.80;0.50;;;;;;;0.27;100.00;101573.44;5489955;26;20535;-65
2024/04/23 04:25:01;;;;;;;1.77;0.30;;;;;;;0.27;100.00;101567.25;5492887;26;20459;-65
2024/04/23 04:27:27;;;;;;;1.90;0.60;;;;;;;0.35;100.00;101569.69;5478261;26;20643;-65
2024/04/23 04:29:55;;;;;;;2.00;0.80;;;;;;;0.34;100.00;101568.88;5480807;26;20574;-65
2024/04/23 04:32:21;;;;;;;1.80;0.30;;;;;;;0.34;100.00;101568.06;5492716;26;20258;-64
2024/04/23 04:34:52;;;;;;;2.50;0.83;;;;;;;0.34;100.00;101568.06;5492838;26;20456;-64
2024/04/23 04:37:17;;;;;;;1.80;0.30;;;;;;;0.40;100.00;101569.88;5490148;26;20228;-64
2024/04/23 04:39:46;;;;;;;3.00;0.70;;;;;;;0.41;100.00;101566.22;5492589;26;20448;-64
2024/04/23 04:42:12;;;;;;;2.20;0.60;;;;;;;0.40;100.00;101572.56;5492605;26;20227;-65
2024/04/23 04:44:40;;;;;;;2.00;0.90;;;;;;;0.41;100.00;101577.69;5492687;26;20499;-65
2024/04/23 04:47:06;;;;;;;2.67;0.60;;;;;;;0.39;100.00;101573.59;5492635;26;20929;-65
2024/04/23 04:49:34;;;;;;;2.17;0.83;;;;;;;0.47;100.00;101570.69;5489908;26;20508;-65
2024/04/23 04:52:02;;;;;;;1.80;0.30;;;;;;;0.64;100.00;101581.72;5477134;26;20254;-65
2024/04/23 04:54:30;;;;;;;1.70;0.30;;;;;;;0.68;100.00;101570.44;5492660;26;20512;-65
2024/04/23 04:56:56;;;;;;;2.63;1.23;;;;;;;0.85;100.00;101580.63;5492336;26;21031;-64
2024/04/23 04:59:24;;;;;;;3.50;1.83;;;;;;;0.97;100.00;101587.75;5489549;26;20455;-64
2024/04/23 05:01:50;;;;;;;1.80;0.40;;;;;;;1.20;100.00;101576.56;5492472;26;20219;-64
2024/04/23 05:04:18;;;;;;;2.53;1.17;;;;;;;1.35;100.00;101583.44;5492164;26;20468;-64
2024/04/23 05:06:44;;;;;;;2.10;0.87;;;;;;;1.45;100.00;101587.25;5492166;26;20265;-64
2024/04/23 05:09:15;;;;;;;2.83;1.23;;;;;;;1.56;100.00;101585.75;5492163;26;20940;-64
2024/04/23 05:11:42;;;;;;;4.60;2.40;;;;;;;1.68;100.00;101583.19;5488343;26;20631;-64
2024/04/23 05:14:10;;;;;;;4.87;3.77;;;;;;;1.77;100.00;101585.41;5479648;26;20475;-64
2024/04/23 05:16:36;;;;;;;2.57;1.27;;;;;;;1.88;100.00;101586.53;5492148;26;20512;-65
2024/04/23 05:19:04;;;;;;;2.00;0.63;;;;;;;1.89;100.00;101584.69;5491973;26;20460;-64
2024/04/23 05:21:30;;;;;;;3.30;2.20;;;;;;;1.91;100.00;101578.09;5492065;26;20258;-65
2024/04/23 05:23:58;;;;;;;2.00;0.70;;;;;;;1.92;100.00;101578.91;5491993;26;20467;-64
2024/04/23 05:26:26;;;;;;;1.80;0.50;;;;;;;1.93;100.00;101577.88;5492065;26;20258;-64
2024/04/23 05:28:54;;;;;;;5.30;1.43;;;;;;;1.92;100.00;101577.06;5491779;26;20539;-64
2024/04/23 05:34:07;;;;;;;1.80;0.40;;;;;;;1.95;100.00;101589.97;5494741;26;20512;-64
2024/04/23 05:36:35;;;;;;;1.80;0.33;;;;;;;1.98;100.00;101589.53;5474817;26;21139;-64
2024/04/23 05:39:03;;;;;;;2.00;0.40;;;;;;;2.02;100.00;101595.25;5491051;26;20516;-64
2024/04/23 05:41:34;;;;;;;2.47;1.07;;;;;;;2.07;100.00;101586.56;5491838;26;20456;-64
2024/04/23 05:44:03;;;;;;;2.30;1.00;;;;;;;1.97;100.00;101589.75;5491711;26;21078;-65
2024/04/23 05:46:31;;;;;;;1.90;0.53;;;;;;;1.98;100.00;101592.19;5473052;26;20538;-65
2024/04/23 05:49:37;;;;;;;1.90;0.50;;;;;;;2.01;100.00;101590.94;5478671;26;20577;-65
2024/04/23 05:52:40;;;;;;;2.00;0.73;;;;;;;2.07;100.00;101598.09;5478961;26;20480;-65
2024/04/23 05:55:33;;;;;;;2.97;2.40;;;;;;;2.13;100.00;101591.06;5491763;26;20456;-65
2024/04/23 05:58:02;;;;;;;2.23;0.87;;;;;;;2.17;100.00;101603.75;5474839;26;21016;-64
2024/04/23 06:00:30;;;;;;;2.00;0.50;;;;;;;2.22;100.00;101598.56;5479166;26;21112;-64
2024/04/23 06:02:56;;;;;;;6.63;2.77;;;;;;;2.28;100.00;101603.03;5491355;26;20516;-66
2024/04/23 06:05:25;;;;;;;1.80;0.30;;;;;;;2.27;100.00;101600.59;5491483;26;20452;-65
2024/04/23 06:07:51;;;;;;;2.20;0.83;;;;;;;2.25;100.00;101600.78;5470838;26;20353;-67
2024/04/23 06:10:20;;;;;;;2.00;0.73;;;;;;;2.25;100.00;101597.28;5457329;26;20501;-66
2024/04/23 06:12:47;;;;;;;1.80;0.30;;;;;;;2.29;100.00;101601.16;5489362;26;20472;-65
2024/04/23 06:15:19;;;;;;;2.20;1.00;;;;;;;2.34;100.00;101603.19;5491229;26;20509;-65
2024/04/23 06:17:44;;;;;;;1.80;0.30;;;;;;;2.42;100.00;101605.56;5491414;26;20457;-65
2024/04/23 06:20:13;;;;;;;2.07;0.67;;;;;;;2.47;100.00;101606.53;5491272;26;20452;-65
2024/04/23 06:22:39;;;;;;;8.17;1.07;;;;;;;2.41;100.00;101603.94;5485501;26;20297;-65
2024/04/23 06:25:09;;;;;;;2.00;0.73;;;;;;;2.47;100.00;101606.53;5490993;26;20983;-65
2024/04/23 06:27:36;;;;;;;2.30;0.63;;;;;;;2.55;100.00;101607.28;5490420;26;20460;-65
2024/04/23 06:30:08;;;;;;;1.80;0.43;;;;;;;2.66;100.00;101604.69;5489741;26;20460;-65
2024/04/23 06:32:37;;;;;;;1.90;0.40;;;;;;;2.75;100.00;101613.25;5488732;26;20480;-65
2024/04/23 06:35:06;;;;;;;1.80;0.40;;;;;;;2.81;100.00;101608.84;5460414;26;21004;-65
2024/04/23 06:37:33;;;;;;;2.10;0.60;;;;;;;2.80;100.00;101609.91;5454452;26;20449;-65
2024/04/23 06:40:02;;;;;;;3.50;0.60;;;;;;;2.84;100.00;101605.75;5478355;26;20577;-64
2024/04/23 06:42:27;;;;;;;2.20;0.60;;;;;;;2.89;100.00;101611.22;5490012;26;20512;-65
2024/04/23 06:44:57;;;;;;;2.00;0.70;;;;;;;2.90;100.00;101608.31;5474336;26;20473;-64
2024/04/23 06:47:24;;;;;;;1.90;0.30;;;;;;;2.92;100.00;101605.41;5462834;26;20342;-65
2024/04/23 06:49:55;;;;;;;2.10;0.70;;;;;;;2.95;100.00;101604.97;5490843;26;20449;-64
2024/04/23 06:52:21;;;;;;;3.50;2.43;;;;;;;3.04;100.00;101603.63;5490595;26;20452;-64
2024/04/23 06:54:49;;;;;;;1.80;0.30;;;;;;;3.12;100.00;101603.31;5482701;26;20516;-64
2024/04/23 06:57:17;;;;;;;1.87;0.37;;;;;;;3.24;100.00;101606.03;5454322;26;20294;-64
2024/04/23 06:59:44;;;;;;;1.87;0.30;;;;;;;3.29;100.00;101598.97;5456815;26;20466;-64
2024/04/23 07:02:13;;;;;;;2.20;0.93;;;;;;;3.33;100.00;101590.47;5479430;26;20535;-64
2024/04/23 07:04:38;;;;;;;3.23;0.60;;;;;;;3.39;100.00;101594.91;5490730;26;20468;-64
2024/04/23 07:07:09;;;;;;;2.03;0.63;;;;;;;3.53;100.00;101604.38;5490611;26;20449;-64
2024/04/23 07:09:35;;;;;;;2.27;0.73;;;;;;;3.59;100.00;101595.44;5490626;26;20464;-64
2024/04/23 07:12:03;;;;;;;3.27;0.90;;;;;;;3.65;100.00;101591.84;5487495;26;20464;-64
2024/04/23 07:14:29;;;;;;;2.17;0.70;;;;;;;3.76;100.00;101590.22;5457180;26;20236;-64
2024/04/23 07:16:57;;;;;;;2.97;0.80;;;;;;;3.78;100.00;101588.94;5490220;26;20516;-64
2024/04/23 07:19:23;;;;;;;7.20;2.20;;;;;;;3.84;100.00;101589.88;5490353;26;20273;-64
2024/04/23 07:21:52;;;;;;;2.23;0.90;;;;;;;3.92;100.00;101584.19;5487826;26;20441;-64
2024/04/23 07:24:20;;;;;;;1.90;0.40;;;;;;;3.96;100.00;101590.72;5455002;26;20287;-64
2024/04/23 07:26:51;;;;;;;2.00;0.60;;;;;;;3.99;99.44;101584.91;5453841;26;20450;-64
2024/04/23 07:29:17;;;;;;;2.30;1.00;;;;;;;4.08;99.07;101582.69;5453828;26;20548;-66
2024/04/23 07:31:45;;;;;;;2.20;0.67;;;;;;;4.12;97.61;101581.19;5479105;26;20460;-65
2024/04/23 07:34:11;;;;;;;2.40;0.60;;;;;;;4.11;93.89;101579.53;5480734;26;20704;-65
2024/04/23 07:36:39;;;;;;;2.97;1.77;;;;;;;4.20;92.75;101580.81;5453761;26;20508;-65
2024/04/23 07:39:05;;;;;;;2.30;0.93;;;;;;;4.29;93.21;101571.38;5464573;26;20273;-65
2024/04/23 07:41:36;;;;;;;2.10;0.53;;;;;;;4.34;93.89;101575.19;5484319;26;20461;-65
2024/04/23 07:44:02;;;;;;;2.63;0.73;;;;;;;4.41;92.80;101571.34;5488943;26;20282;-65
2024/04/23 07:46:30;;;;;;;2.20;0.80;;;;;;;4.51;92.81;101571.56;5489873;26;20464;-65
2024/04/23 07:48:55;;;;;;;2.30;0.70;;;;;;;4.63;92.77;101568.84;5489942;26;20219;-65
2024/04/23 07:51:24;;;;;;;2.10;0.47;;;;;;;4.69;90.69;101567.94;5489648;26;20516;-65
2024/04/23 07:53:50;;;;;;;2.17;0.63;;;;;;;4.80;88.16;101564.38;5478224;26;20236;-65
2024/04/23 07:56:21;;;;;;;2.87;0.70;;;;;;;4.93;85.32;101562.47;5453501;26;20465;-65
2024/04/23 07:58:49;;;;;;;2.00;0.50;;;;;;;4.94;81.82;101554.19;5453472;26;20597;-64
2024/04/23 08:01:18;;;;;;;2.83;0.50;;;;;;;4.95;80.06;101555.00;5453124;26;20505;-64
2024/04/23 08:03:43;;;;;;;4.67;0.97;;;;;;;5.05;78.27;101555.22;5455587;26;20553;-65
2024/04/23 08:06:11;;;;;;;2.50;0.90;;;;;;;5.07;79.01;101553.09;5485210;26;20464;-67
2024/04/23 08:08:37;;;;;;;2.60;0.93;;;;;;;5.15;77.65;101546.50;5459002;26;20721;-66
2024/04/23 08:11:06;;;;;;;2.10;0.40;;;;;;;5.26;78.29;101541.06;5454307;26;20509;-65
2024/04/23 08:13:31;;;;;;;2.07;0.43;;;;;;;5.30;72.90;101544.91;5489159;26;20279;-65
2024/04/23 08:16:02;;;;;;;2.20;0.50;;;;;;;5.42;72.08;101535.97;5489579;26;20970;-65
2024/04/23 08:18:28;;;;;;;2.10;0.50;;;;;;;5.43;75.25;101535.72;5475386;26;20335;-65
2024/04/23 08:20:56;;;;;;;3.27;1.23;;;;;;;5.49;71.61;101534.75;5489279;26;20456;-65
2024/04/23 08:23:22;;;;;;;8.07;2.80;;;;;;;5.60;72.59;101526.84;5489338;26;20460;-65
2024/04/23 08:25:50;;;;;;;2.63;0.80;;;;;;;5.72;70.25;101530.28;5489273;26;20829;-65
2024/04/23 08:28:16;;;;;;;2.13;0.53;;;;;;;5.74;68.11;101518.22;5486494;26;20278;-65
2024/04/23 08:30:45;;;;;;;4.97;0.70;;;;;;;5.86;69.46;101522.69;5465671;26;20466;-65
2024/04/23 08:33:13;;;;;;;2.70;0.60;;;;;;;5.95;70.54;101510.50;5474018;26;20315;-65
2024/04/23 08:35:43;;;;;;;2.07;0.40;;;;;;;6.05;69.67;101516.81;5470134;26;20530;-65
2024/04/23 08:38:08;;;;;;;2.43;0.97;;;;;;;6.13;66.60;101514.78;5485823;26;20504;-65
2024/04/23 08:40:37;;;;;;;2.50;0.90;;;;;;;6.15;67.88;101510.75;5457562;26;20465;-65
2024/04/23 08:43:13;;;;;;;3.80;1.33;;;;;;;6.21;67.02;101503.59;5460366;26;20477;-65
2024/04/23 08:45:42;;;;;;;2.20;0.53;;;;;;;6.35;65.57;101512.09;5483856;26;20502;-65
2024/04/23 08:48:08;;;;;;;2.27;0.60;;;;;;;6.38;64.05;101504.34;5421082;20;21020;-64
2024/04/23 08:50:39;;;;;;;3.47;1.63;;;;;;;6.44;64.45;101500.66;5403096;26;20577;-67
2024/04/23 08:53:07;;;;;;;2.40;0.80;;;;;;;6.53;65.50;101501.03;5371293;26;20242;-64
2024/04/23 08:55:45;;;;;;;3.43;0.60;;;;;;;6.64;63.71;101502.78;5371312;26;20984;-64
2024/04/23 08:58:12;;;;;;;2.23;0.73;;;;;;;6.74;63.91;101500.19;5369486;26;20525;-64
2024/04/23 09:00:41;;;;;;;2.40;0.80;;;;;;;6.79;62.00;101500.25;5371306;26;21021;-64
2024/04/23 09:03:08;;;;;;;2.40;0.60;;;;;;;6.86;60.75;101486.56;5337239;26;20993;-64
2024/04/23 09:05:39;;;;;;;2.40;0.70;;;;;;;6.79;60.49;101481.41;5361678;26;20592;-64
2024/04/23 09:08:06;;;;;;;2.60;0.90;;;;;;;6.94;62.45;101474.53;5375007;26;20992;-64
2024/04/23 09:10:34;;;;;;;2.60;0.67;;;;;;;7.09;60.60;101482.78;5374338;26;20461;-64
2024/04/23 09:13:00;;;;;;;2.60;0.50;;;;;;;7.17;57.72;101479.63;5358087;26;20468;-64
2024/04/23 09:15:28;;;;;;;2.30;0.63;;;;;;;7.20;56.42;101476.41;5374641;26;20464;-68
2024/04/23 09:17:55;;;;;;;3.13;1.07;;;;;;;7.20;55.83;101473.69;5373912;26;20227;-65
2024/04/23 09:20:25;;;;;;;2.40;0.83;;;;;;;7.33;55.92;101478.66;5370097;26;21038;-65
2024/04/23 09:22:58;;;;;;;2.97;0.93;;;;;;;7.37;56.40;101472.78;5374789;26;20472;-67
2024/04/23 09:25:27;;;;;;;2.80;0.70;;;;;;;7.49;53.46;101473.41;5374584;26;20983;-66
2024/04/23 09:27:53;;;;;;;2.30;0.73;;;;;;;7.44;55.55;101468.00;5374471;26;20803;-66
2024/04/23 09:30:29;;;;;;;3.80;1.00;;;;;;;7.39;55.06;101463.34;5370572;26;20623;-68
2024/04/23 09:33:00;;;;;;;2.70;0.83;;;;;;;7.50;54.48;101445.38;5339529;26;20486;-65
2024/04/23 09:35:28;;;;;;;4.40;1.00;;;;;;;7.63;53.79;101447.63;5339494;26;20520;-65
2024/04/23 09:37:56;;;;;;;2.20;0.60;;;;;;;7.70;56.67;101437.44;5339558;26;20462;-65
2024/04/23 09:40:25;;;;;;;2.63;0.90;;;;;;;7.77;56.00;101439.88;5341508;26;20462;-65
2024/04/23 09:42:53;;;;;;;2.93;1.20;;;;;;;7.89;54.85;101439.69;5366479;26;20476;-65
2024/04/23 09:45:24;;;;;;;2.30;0.70;;;;;;;7.96;54.29;101437.56;5374309;26;20464;-65
2024/04/23 09:47:50;;;;;;;3.50;0.70;;;;;;;8.00;53.10;101434.06;5397814;26;20471;-65
2024/04/23 09:50:19;;;;;;;2.43;0.63;;;;;;;8.05;48.10;101430.56;5409442;26;20515;-66
2024/04/23 09:52:45;;;;;;;6.47;1.33;;;;;;;8.12;48.71;101422.25;5392135;26;20933;-65
2024/04/23 09:55:18;;;;;;;4.10;1.13;;;;;;;8.27;49.03;101422.31;5374162;26;20457;-65
2024/04/23 09:57:48;;;;;;;2.20;0.60;;;;;;;8.47;47.99;101427.00;5374194;26;20477;-65
2024/04/23 10:00:17;;;;;;;2.20;0.50;;;;;;;8.64;47.81;101422.19;5374168;26;20460;-65
2024/04/23 10:02:45;;;;;;;2.70;0.87;;;;;;;8.74;46.88;101426.78;5379109;26;20530;-65
2024/04/23 10:05:22;;;;;;;2.60;0.87;;;;;;;8.76;47.58;101424.63;5409404;26;20511;-65
2024/04/23 10:07:53;;;;;;;2.53;0.80;;;;;;;8.70;48.76;101420.28;5409526;26;20513;-66
2024/04/23 10:10:26;;;;;;;4.77;1.00;;;;;;;8.75;49.04;101410.31;5409562;26;20847;-65
2024/04/23 10:12:55;;;;;;;3.00;0.90;;;;;;;8.96;47.73;101410.31;5406424;26;20584;-65
2024/04/23 10:15:31;;;;;;;2.77;1.03;;;;;;;9.23;48.30;101407.34;5377803;26;20532;-65
2024/04/23 10:18:04;;;;;;;2.30;0.67;;;;;;;9.58;47.00;101409.19;5373233;26;20992;-66
2024/04/23 10:20:38;;;;;;;2.90;0.73;;;;;;;9.70;46.36;101417.84;5373731;26;20469;-68
2024/04/23 10:23:05;;;;;;;2.20;0.47;;;;;;;9.54;45.41;101408.13;5375806;26;20516;-66
2024/04/23 10:25:36;;;;;;;2.40;0.67;;;;;;;9.47;45.11;101402.16;5395950;26;20459;-65
2024/04/23 10:28:03;;;;;;;2.90;0.70;;;;;;;9.51;45.93;101387.03;5408304;26;20489;-69
2024/04/23 10:30:32;;;;;;;2.30;0.60;;;;;;;9.70;47.70;101392.69;5404532;26;21014;-70
2024/04/23 10:33:01;;;;;;;2.37;0.60;;;;;;;9.96;43.64;101401.50;5374709;26;20485;-67
2024/04/23 10:35:31;;;;;;;2.53;0.73;;;;;;;10.00;44.67;101391.75;5381206;26;20587;-66
2024/04/23 10:38:02;;;;;;;2.90;0.80;;;;;;;9.96;44.91;101386.09;5409110;26;20444;-65
2024/04/23 10:40:28;;;;;;;2.20;0.60;;;;;;;9.91;44.39;101385.28;5408928;26;20519;-66
2024/04/23 10:42:59;;;;;;;2.23;0.57;;;;;;;9.92;44.68;101379.59;5408581;26;21022;-65
2024/04/23 10:45:25;;;;;;;2.50;0.50;;;;;;;10.00;44.20;101372.78;5405956;26;20467;-65
2024/04/23 10:47:54;;;;;;;2.10;0.50;;;;;;;9.80;43.72;101379.09;5385312;26;20524;-66
2024/04/23 10:50:28;;;;;;;2.70;0.60;;;;;;;9.94;44.63;101374.72;5375287;26;20238;-65
2024/04/23 10:52:59;;;;;;;2.40;0.80;;;;;;;10.16;45.38;101370.84;5375345;26;20471;-66
2024/04/23 10:55:26;;;;;;;2.67;0.77;;;;;;;10.27;42.17;101377.81;5373894;26;20473;-66
2024/04/23 10:57:55;;;;;;;3.07;0.83;;;;;;;10.22;42.63;101369.72;5373306;26;20509;-66
2024/04/23 11:00:34;;;;;;;3.90;0.90;;;;;;;10.31;43.94;101371.59;5373200;26;20521;-65
2024/04/23 11:03:02;;;;;;;2.80;0.70;;;;;;;10.56;42.78;101361.69;5373281;26;20815;-65
2024/04/23 11:05:31;;;;;;;2.53;0.63;;;;;;;10.97;43.62;101361.38;5386740;26;20520;-65
2024/04/23 11:08:08;;;;;;;2.33;0.67;;;;;;;11.14;43.11;101350.91;5408269;26;20562;-66
2024/04/23 11:10:50;;;;;;;2.70;0.67;;;;;;;11.19;42.80;101347.34;5407495;26;20571;-66
2024/04/23 11:13:27;;;;;;;2.23;0.70;;;;;;;11.56;42.40;101335.84;5408435;26;20579;-65
2024/04/23 11:15:58;;;;;;;2.87;0.83;;;;;;;12.16;42.55;101340.81;5408296;26;20869;-65
2024/04/23 11:18:27;;;;;;;2.60;0.70;;;;;;;12.32;41.02;101344.94;5408168;26;21046;-67
2024/04/23 11:20:55;;;;;;;4.00;1.10;;;;;;;12.09;39.36;101330.31;5398829;26;20471;-68
2024/04/23 11:23:25;;;;;;;8.93;1.40;;;;;;;11.90;41.25;101329.47;5372692;26;20532;-68
2024/04/23 11:25:52;;;;;;;2.40;0.67;;;;;;;12.53;42.01;101329.13;5382103;26;20485;-67
2024/04/23 11:28:20;;;;;;;2.43;0.63;;;;;;;13.13;39.78;101323.75;5406303;26;20805;-65
2024/04/23 11:30:52;;;;;;;2.70;1.00;;;;;;;13.46;39.25;101310.09;5408123;26;20455;-66
2024/04/23 11:33:23;;;;;;;2.40;0.57;;;;;;;14.32;38.49;101323.78;5373179;26;20830;-67
2024/04/23 11:35:50;;;;;;;3.30;1.07;;;;;;;15.36;38.42;101328.03;5372691;26;20517;-66
2024/04/23 11:38:18;;;;;;;2.50;1.03;;;;;;;15.39;33.51;101312.94;5372563;26;20445;-67
2024/04/23 11:40:44;;;;;;;2.70;1.00;;;;;;;15.03;33.99;101307.63;5372597;26;20510;-66
2024/04/23 11:43:12;;;;;;;3.03;0.90;;;;;;;14.68;34.99;101315.59;5376080;26;20833;-66